createdAt,value
2018-03-23T00:02:01.439Z,66.19
2018-03-23T00:04:29.922Z,64.97
2018-03-23T00:06:58.539Z,64.68
2018-03-23T00:09:27.640Z,67.39
2018-03-23T00:11:56.520Z,65.93
2018-03-23T00:14:25.477Z,64.95
2018-03-23T00:16:54.358Z,67.26
2018-03-23T00:19:22.856Z,66.77
2018-03-23T00:21:51.308Z,66.39
2018-03-23T00:24:19.842Z,68.99
2018-03-23T00:26:48.259Z,66.87
2018-03-23T00:29:16.805Z,68.05
2018-03-23T00:31:45.379Z,65.18
2018-03-23T00:34:13.986Z,64.65
2018-03-23T00:36:42.610Z,67.87
2018-03-23T00:39:11.008Z,70.27
2018-03-23T00:41:39.464Z,69.77
2018-03-23T00:44:07.848Z,67.95
2018-03-23T00:46:37.445Z,71.77
2018-03-23T00:49:05.924Z,70.29
2018-03-23T00:51:34.295Z,67.62
2018-03-23T00:54:02.656Z,68.20
2018-03-23T00:56:31.077Z,68.75
2018-03-23T00:58:59.616Z,65.81
2018-03-23T01:01:28.323Z,68.89
2018-03-23T01:03:57.046Z,67.50
2018-03-23T01:06:25.661Z,68.76
2018-03-23T01:08:54.532Z,70.96
2018-03-23T01:11:23.170Z,69.71
2018-03-23T01:13:51.712Z,69.11
2018-03-23T01:16:20.120Z,70.13
2018-03-23T01:18:48.495Z,68.45
2018-03-23T01:21:17.053Z,66.69
2018-03-23T01:23:45.556Z,68.22
2018-03-23T01:26:14.189Z,67.73
2018-03-23T01:28:42.820Z,68.28
2018-03-23T01:31:11.205Z,67.07
2018-03-23T01:33:39.584Z,64.72
2018-03-23T01:36:08.073Z,67.63
2018-03-23T01:38:36.435Z,69.12
2018-03-23T01:41:04.893Z,67.21
2018-03-23T01:43:33.244Z,69.33
2018-03-23T01:46:01.625Z,67.05
2018-03-23T01:48:30.197Z,67.07
2018-03-23T01:50:58.779Z,64.43
2018-03-23T01:53:39.425Z,68.31
2018-03-23T01:56:07.788Z,65.64
2018-03-23T01:58:36.162Z,66.41
2018-03-23T02:01:04.558Z,64.62
2018-03-23T02:03:32.921Z,66.69
2018-03-23T02:06:01.372Z,66.62
2018-03-23T02:08:29.819Z,66.79
2018-03-23T02:10:58.378Z,64.36
2018-03-23T02:13:27.033Z,63.08
2018-03-23T02:15:55.810Z,63.65
2018-03-23T02:18:24.879Z,63.65
2018-03-23T02:20:53.448Z,63.21
2018-03-23T02:23:21.875Z,63.51
2018-03-23T02:25:50.410Z,63.55
2018-03-23T02:28:18.825Z,64.79
2018-03-23T02:30:47.286Z,64.92
2018-03-23T02:33:15.651Z,66.54
2018-03-23T02:35:44.265Z,67.02
2018-03-23T02:38:12.701Z,66.28
2018-03-23T02:40:41.161Z,65.10
2018-03-23T02:43:10.479Z,63.56
2018-03-23T02:45:38.848Z,64.16
2018-03-23T02:48:07.244Z,66.41
2018-03-23T02:50:35.804Z,65.57
2018-03-23T02:53:04.512Z,69.56
2018-03-23T02:55:32.884Z,66.19
2018-03-23T02:58:01.389Z,66.41
2018-03-23T03:00:30.839Z,65.97
2018-03-23T03:02:59.427Z,67.39
2018-03-23T03:05:27.991Z,65.18
2018-03-23T03:07:56.743Z,65.89
2018-03-23T03:10:25.395Z,67.24
2018-03-23T03:12:55.128Z,64.93
2018-03-23T03:15:23.608Z,68.11
2018-03-23T03:17:52.437Z,67.96
2018-03-23T03:20:21.177Z,68.16
2018-03-23T03:22:49.555Z,69.51
2018-03-23T03:25:17.961Z,66.78
2018-03-23T03:27:46.617Z,69.19
2018-03-23T03:30:15.002Z,66.32
2018-03-23T03:32:43.446Z,65.44
2018-03-23T03:35:11.835Z,68.12
2018-03-23T03:37:40.229Z,64.76
2018-03-23T03:40:08.824Z,65.03
2018-03-23T03:42:37.291Z,66.83
2018-03-23T03:45:05.653Z,65.69
2018-03-23T03:47:34.058Z,66.04
2018-03-23T03:50:02.483Z,67.89
2018-03-23T03:52:30.982Z,67.92
2018-03-23T03:55:00.144Z,68.93
2018-03-23T03:57:29.413Z,66.41
2018-03-23T03:59:58.320Z,65.77
2018-03-23T04:02:27.133Z,67.32
2018-03-23T04:04:56.081Z,65.60
2018-03-23T04:07:24.935Z,65.26
2018-03-23T04:09:53.644Z,64.66
2018-03-23T04:12:22.267Z,65.25
2018-03-23T04:14:50.727Z,62.71
2018-03-23T04:17:19.144Z,63.34
2018-03-23T04:19:47.560Z,62.79
2018-03-23T04:22:16.120Z,62.43
2018-03-23T04:24:44.643Z,62.81
2018-03-23T04:27:13.058Z,65.97
2018-03-23T04:29:41.445Z,63.75
2018-03-23T04:32:10.209Z,62.73
2018-03-23T04:34:38.580Z,63.83
2018-03-23T04:37:07.292Z,64.13
2018-03-23T04:39:35.959Z,65.23
2018-03-23T04:42:04.408Z,65.47
2018-03-23T04:44:32.868Z,67.94
2018-03-23T04:47:01.416Z,65.41
2018-03-23T04:49:29.902Z,63.62
2018-03-23T04:51:58.664Z,63.66
2018-03-23T04:54:27.872Z,61.32
2018-03-23T04:56:57.268Z,63.54
2018-03-23T04:59:26.307Z,63.35
2018-03-23T05:01:55.155Z,64.33
2018-03-23T05:04:24.134Z,64.20
2018-03-23T05:06:53.068Z,61.64
2018-03-23T05:09:21.591Z,62.08
2018-03-23T05:11:50.044Z,64.41
2018-03-23T05:14:18.440Z,68.82
2018-03-23T05:16:46.969Z,63.54
2018-03-23T05:19:15.575Z,63.99
2018-03-23T05:21:44.016Z,61.51
2018-03-23T05:24:12.405Z,60.73
2018-03-23T05:26:40.779Z,60.76
2018-03-23T05:29:09.331Z,61.37
2018-03-23T05:31:37.826Z,63.43
2018-03-23T05:34:06.268Z,61.83
2018-03-23T05:36:34.664Z,61.86
2018-03-23T05:39:03.048Z,61.83
2018-03-23T05:41:31.608Z,61.36
2018-03-23T05:44:00.099Z,60.88
2018-03-23T05:46:28.568Z,62.69
2018-03-23T05:48:57.196Z,65.12
2018-03-23T05:51:25.951Z,64.00
2018-03-23T05:53:55.602Z,66.34
2018-03-23T05:56:24.599Z,62.56
2018-03-23T05:58:53.408Z,62.16
2018-03-23T06:01:21.911Z,61.87
2018-03-23T06:03:50.470Z,60.72
2018-03-23T06:06:18.997Z,63.36
2018-03-23T06:08:47.651Z,60.66
2018-03-23T06:11:16.135Z,60.29
2018-03-23T06:13:44.635Z,60.41
2018-03-23T06:16:13.176Z,60.32
2018-03-23T06:18:41.880Z,60.10
2018-03-23T06:21:10.301Z,60.41
2018-03-23T06:23:38.795Z,59.53
2018-03-23T06:26:07.186Z,59.28
2018-03-23T06:28:35.556Z,58.75
2018-03-23T06:31:03.932Z,58.91
2018-03-23T06:33:32.905Z,58.01
2018-03-23T06:36:01.495Z,58.39
2018-03-23T06:38:29.891Z,58.90
2018-03-23T06:40:58.408Z,60.24
2018-03-23T06:43:27.012Z,62.81
2018-03-23T06:45:55.829Z,63.02
2018-03-23T06:48:24.612Z,61.95
2018-03-23T06:50:53.300Z,62.57
2018-03-23T06:53:21.872Z,63.10
2018-03-23T06:55:50.298Z,61.51
2018-03-23T06:58:18.717Z,62.06
2018-03-23T07:00:47.237Z,60.91
2018-03-23T07:03:15.880Z,60.66
2018-03-23T07:05:44.346Z,61.20
2018-03-23T07:08:12.798Z,61.37
2018-03-23T07:10:41.271Z,61.81
2018-03-23T07:13:09.639Z,64.46
2018-03-23T07:15:38.019Z,65.04
2018-03-23T07:18:06.403Z,69.08
2018-03-23T07:20:34.814Z,68.79
2018-03-23T07:23:03.349Z,67.73
2018-03-23T07:25:31.771Z,65.42
2018-03-23T07:28:00.461Z,64.79
2018-03-23T07:30:28.935Z,63.51
2018-03-23T07:32:57.514Z,65.33
2018-03-23T07:35:27.125Z,63.99
2018-03-23T07:37:55.758Z,62.01
2018-03-23T07:40:24.347Z,61.93
2018-03-23T07:42:52.854Z,62.36
2018-03-23T07:45:21.283Z,62.42
2018-03-23T07:47:49.734Z,64.28
2018-03-23T07:50:18.179Z,62.21
2018-03-23T07:52:47.566Z,62.99
2018-03-23T07:55:17.149Z,61.56
2018-03-23T07:57:45.673Z,61.42
2018-03-23T08:00:14.260Z,60.09
2018-03-23T08:02:42.667Z,60.97
2018-03-23T08:05:11.054Z,60.05
2018-03-23T08:07:39.422Z,61.88
2018-03-23T08:10:07.805Z,61.42
2018-03-23T08:12:36.260Z,61.20
2018-03-23T08:15:05.540Z,61.02
2018-03-23T08:17:33.938Z,63.27
2018-03-23T08:20:02.328Z,62.99
2018-03-23T08:22:30.764Z,63.62
2018-03-23T08:24:59.471Z,64.05
2018-03-23T08:27:28.339Z,62.61
2018-03-23T08:29:56.987Z,63.38
2018-03-23T08:32:25.795Z,61.74
2018-03-23T08:34:54.385Z,62.57
2018-03-23T08:37:23.228Z,60.17
2018-03-23T08:39:51.676Z,63.28
2018-03-23T08:42:21.007Z,64.29
2018-03-23T08:44:49.445Z,64.28
2018-03-23T08:47:17.876Z,64.31
2018-03-23T08:49:46.488Z,61.99
2018-03-23T08:52:14.908Z,63.50
2018-03-23T08:54:43.315Z,62.32
2018-03-23T08:57:11.692Z,61.79
2018-03-23T08:59:40.117Z,63.88
2018-03-23T09:02:08.591Z,62.97
2018-03-23T09:04:37.006Z,62.17
2018-03-23T09:07:05.376Z,62.72
2018-03-23T09:09:33.943Z,65.72
2018-03-23T09:12:02.467Z,66.07
2018-03-23T09:14:31.131Z,64.40
2018-03-23T09:16:59.639Z,62.74
2018-03-23T09:19:28.876Z,64.16
2018-03-23T09:21:57.483Z,64.09
2018-03-23T09:24:26.148Z,66.00
2018-03-23T09:26:54.936Z,66.01
2018-03-23T09:29:23.989Z,66.19
2018-03-23T09:31:53.054Z,64.69
2018-03-23T09:34:21.464Z,66.02
2018-03-23T09:36:50.016Z,63.72
2018-03-23T09:39:18.477Z,64.37
2018-03-23T09:41:46.895Z,61.34
2018-03-23T09:44:15.436Z,61.16
2018-03-23T09:46:44.032Z,61.31
2018-03-23T09:49:12.496Z,63.06
2018-03-23T09:51:41.076Z,65.04
2018-03-23T09:54:09.566Z,62.97
2018-03-23T09:56:38.026Z,66.60
2018-03-23T09:59:06.423Z,67.70
2018-03-23T10:01:34.871Z,64.78
2018-03-23T10:04:03.399Z,62.40
2018-03-23T10:06:31.896Z,60.85
2018-03-23T10:09:00.646Z,60.77
2018-03-23T10:11:30.094Z,60.67
2018-03-23T10:13:58.696Z,61.52
2018-03-23T10:16:27.513Z,61.70
2018-03-23T10:18:56.100Z,61.36
2018-03-23T10:21:25.514Z,60.46
2018-03-23T10:23:54.502Z,59.71
2018-03-23T10:26:22.984Z,59.79
2018-03-23T10:28:51.648Z,59.52
2018-03-23T10:31:20.681Z,59.83
2018-03-23T10:33:49.110Z,58.85
2018-03-23T10:36:17.590Z,57.95
2018-03-23T10:38:45.994Z,59.01
2018-03-23T10:41:14.467Z,58.65
2018-03-23T10:43:42.873Z,59.12
2018-03-23T10:46:11.271Z,61.68
2018-03-23T10:48:39.775Z,59.80
2018-03-23T10:51:08.176Z,59.98
2018-03-23T10:53:36.732Z,59.42
2018-03-23T10:56:05.610Z,59.33
2018-03-23T10:58:34.252Z,58.77
2018-03-23T11:01:08.415Z,57.21
2018-03-23T11:03:36.812Z,58.93
2018-03-23T11:06:05.247Z,57.30
2018-03-23T11:08:33.648Z,56.78
2018-03-23T11:11:02.268Z,56.03
2018-03-23T11:13:30.920Z,57.34
2018-03-23T11:15:59.449Z,58.78
2018-03-23T11:18:28.402Z,59.07
2018-03-23T11:20:57.286Z,57.61
2018-03-23T11:23:26.333Z,57.66
2018-03-23T11:25:54.982Z,57.09
2018-03-23T11:28:23.957Z,56.69
2018-03-23T11:30:52.678Z,55.23
2018-03-23T11:33:21.549Z,54.12
2018-03-23T11:35:50.829Z,51.95
2018-03-23T11:38:19.311Z,52.41
2018-03-23T11:40:47.898Z,51.12
2018-03-23T11:43:16.673Z,51.73
2018-03-23T11:45:45.321Z,52.40
2018-03-23T11:48:13.879Z,51.51
2018-03-23T11:50:42.308Z,51.47
2018-03-23T11:53:10.702Z,51.60
2018-03-23T11:55:39.103Z,50.90
2018-03-23T11:58:07.520Z,50.74
2018-03-23T12:00:35.967Z,51.74
2018-03-23T12:03:04.432Z,48.42
2018-03-23T12:05:32.865Z,51.94
2018-03-23T12:08:01.448Z,51.19
2018-03-23T12:10:29.934Z,49.71
2018-03-23T12:12:58.819Z,49.03
2018-03-23T12:15:27.600Z,51.05
2018-03-23T12:17:57.103Z,51.60
2018-03-23T12:20:25.859Z,51.71
2018-03-23T12:22:55.198Z,51.92
2018-03-23T12:25:24.062Z,53.70
2018-03-23T12:27:52.521Z,55.00
2018-03-23T12:30:21.004Z,53.02
2018-03-23T12:32:49.476Z,52.78
2018-03-23T12:35:18.200Z,52.40
2018-03-23T12:37:46.955Z,51.44
2018-03-23T12:40:15.488Z,50.41
2018-03-23T12:42:44.020Z,51.46
2018-03-23T12:45:12.465Z,52.01
2018-03-23T12:47:40.949Z,50.39
2018-03-23T12:50:09.500Z,51.82
2018-03-23T12:52:37.883Z,51.61
2018-03-23T12:55:06.278Z,50.62
2018-03-23T12:57:34.699Z,51.73
2018-03-23T13:00:03.102Z,51.46
2018-03-23T13:02:31.559Z,52.31
2018-03-23T13:05:00.034Z,52.88
2018-03-23T13:07:28.624Z,55.38
2018-03-23T13:09:57.635Z,54.11
2018-03-23T13:12:26.666Z,54.89
2018-03-23T13:14:56.046Z,55.49
2018-03-23T13:17:25.487Z,54.43
2018-03-23T13:19:54.237Z,55.08
2018-03-23T13:22:22.740Z,55.88
2018-03-23T13:24:51.281Z,57.13
2018-03-23T13:27:19.776Z,56.85
2018-03-23T13:29:48.191Z,57.30
2018-03-23T13:32:16.625Z,55.41
2018-03-23T13:37:19.741Z,59.04
2018-03-23T13:39:48.132Z,60.01
2018-03-23T13:42:16.521Z,57.75
2018-03-23T13:44:44.968Z,58.12
2018-03-23T13:47:13.316Z,58.67
2018-03-23T13:49:41.682Z,58.12
2018-03-23T13:52:10.109Z,59.11
2018-03-23T13:54:38.495Z,59.76
2018-03-23T13:57:06.882Z,59.18
2018-03-23T13:59:40.843Z,61.12
2018-03-23T14:02:09.221Z,61.20
2018-03-23T14:04:37.654Z,61.57
2018-03-23T14:07:06.133Z,60.09
2018-03-23T14:09:34.607Z,58.25
2018-03-23T14:12:03.198Z,58.97
2018-03-23T14:14:31.806Z,60.80
2018-03-23T14:17:00.454Z,60.84
2018-03-23T14:19:29.121Z,61.22
2018-03-23T14:21:57.582Z,61.86
2018-03-23T14:24:26.055Z,60.27
2018-03-23T14:26:54.759Z,60.96
2018-03-23T14:29:23.319Z,60.46
2018-03-23T14:31:51.902Z,59.08
2018-03-23T14:34:20.637Z,58.44
2018-03-23T14:36:49.048Z,57.46
2018-03-23T14:39:17.463Z,56.60
2018-03-23T14:41:46.263Z,53.61
2018-03-23T14:44:14.763Z,52.44
2018-03-23T14:46:43.133Z,51.34
2018-03-23T14:49:11.571Z,50.47
2018-03-23T14:51:39.985Z,47.88
2018-03-23T14:54:08.394Z,48.55
2018-03-23T14:56:36.957Z,48.13
2018-03-23T14:59:10.981Z,49.69
2018-03-23T15:01:39.393Z,52.43
2018-03-23T15:04:07.797Z,53.37
2018-03-23T15:06:36.213Z,54.06
2018-03-23T15:09:05.484Z,51.59
2018-03-23T15:11:34.101Z,51.44
2018-03-23T15:14:14.731Z,51.30
2018-03-23T15:16:43.153Z,49.83
2018-03-23T15:19:11.584Z,50.97
2018-03-23T15:21:40.099Z,50.00
2018-03-23T15:24:08.549Z,49.14
2018-03-23T15:26:36.922Z,49.17
2018-03-23T15:29:05.402Z,49.11
2018-03-23T15:31:33.807Z,48.03
2018-03-23T15:34:02.836Z,48.14
2018-03-23T15:36:31.439Z,46.85
2018-03-23T15:39:00.235Z,48.91
2018-03-23T15:41:28.921Z,49.80
2018-03-23T15:43:57.652Z,49.50
2018-03-23T15:46:26.552Z,48.77
2018-03-23T15:48:55.531Z,50.40
2018-03-23T15:51:24.770Z,50.96
2018-03-23T15:53:53.664Z,49.31
2018-03-23T15:56:23.090Z,50.18
2018-03-23T15:58:51.996Z,48.65
2018-03-23T16:01:20.487Z,50.06
2018-03-23T16:03:49.122Z,51.67
2018-03-23T16:06:18.141Z,50.50
2018-03-23T16:08:46.561Z,49.71
2018-03-23T16:11:15.024Z,51.68
2018-03-23T16:13:43.708Z,53.09
2018-03-23T16:16:12.098Z,54.83
2018-03-23T16:18:40.529Z,55.33
2018-03-23T16:21:08.975Z,56.27
2018-03-23T16:23:37.391Z,56.88
2018-03-23T16:26:05.790Z,57.66
2018-03-23T16:28:34.237Z,56.66
2018-03-23T16:31:03.265Z,57.16
2018-03-23T16:33:31.690Z,56.87
2018-03-23T16:36:00.217Z,58.12
2018-03-23T16:38:29.500Z,56.46
2018-03-23T16:40:58.248Z,56.47
2018-03-23T16:43:27.115Z,57.06
2018-03-23T16:45:55.837Z,57.98
2018-03-23T16:48:25.195Z,59.16
2018-03-23T16:50:53.824Z,58.54
2018-03-23T16:53:22.317Z,60.62
2018-03-23T16:55:50.992Z,58.82
2018-03-23T16:58:19.412Z,57.97
2018-03-23T17:00:48.014Z,59.24
2018-03-23T17:03:16.461Z,60.69
2018-03-23T17:05:44.871Z,61.46
2018-03-23T17:08:13.629Z,58.17
2018-03-23T17:10:42.081Z,58.47
2018-03-23T17:13:10.504Z,59.87
2018-03-23T17:15:38.959Z,60.35
2018-03-23T17:18:07.391Z,59.44
2018-03-23T17:20:36.257Z,59.69
2018-03-23T17:23:05.124Z,57.33
2018-03-23T17:25:33.623Z,56.42
2018-03-23T17:28:02.361Z,58.96
2018-03-23T17:30:31.174Z,60.72
2018-03-23T17:32:59.699Z,61.44
2018-03-23T17:35:28.244Z,58.57
2018-03-23T17:37:57.405Z,56.07
2018-03-23T17:40:26.591Z,56.82
2018-03-23T17:42:55.259Z,57.31
2018-03-23T17:45:24.060Z,60.21
2018-03-23T17:47:52.951Z,58.81
2018-03-23T17:50:21.368Z,63.15
2018-03-23T17:52:50.112Z,61.16
2018-03-23T17:55:18.571Z,60.71
2018-03-23T17:57:47.046Z,61.65
2018-03-23T18:00:15.689Z,60.48
2018-03-23T18:02:44.120Z,61.55
2018-03-23T18:05:12.523Z,61.92
2018-03-23T18:07:41.273Z,61.98
2018-03-23T18:10:09.691Z,63.01
2018-03-23T18:12:38.088Z,62.15
2018-03-23T18:15:06.623Z,61.75
2018-03-23T18:17:35.055Z,60.39
2018-03-23T18:20:03.542Z,59.99
2018-03-23T18:22:31.996Z,58.91
2018-03-23T18:25:00.520Z,60.51
2018-03-23T18:27:29.258Z,60.01
2018-03-23T18:29:58.073Z,60.86
2018-03-23T18:32:26.765Z,60.00
2018-03-23T18:34:55.249Z,58.50
2018-03-23T18:37:24.094Z,61.34
2018-03-23T18:39:52.762Z,60.95
2018-03-23T18:42:21.353Z,62.32
2018-03-23T18:44:49.964Z,64.15
2018-03-23T18:47:18.620Z,61.99
2018-03-23T18:49:47.252Z,63.30
2018-03-23T18:52:16.196Z,59.73
2018-03-23T18:54:44.720Z,58.30
2018-03-23T18:57:13.163Z,61.56
2018-03-23T18:59:41.566Z,63.70
2018-03-23T19:02:10.056Z,63.32
2018-03-23T19:04:38.531Z,62.60
2018-03-23T19:07:06.932Z,60.28
2018-03-23T19:09:35.380Z,61.22
2018-03-23T19:12:04.656Z,58.50
2018-03-23T19:14:33.190Z,61.18
2018-03-23T19:17:01.887Z,61.25
2018-03-23T19:19:30.292Z,60.79
2018-03-23T19:21:58.708Z,64.68
2018-03-23T19:24:27.142Z,64.48
2018-03-23T19:26:55.552Z,64.01
2018-03-23T19:29:24.011Z,63.11
2018-03-23T19:31:52.408Z,61.93
2018-03-23T19:34:20.830Z,61.39
2018-03-23T19:36:49.269Z,60.88
2018-03-23T19:39:17.721Z,63.10
2018-03-23T19:41:46.207Z,62.44
2018-03-23T19:44:14.744Z,62.85
2018-03-23T19:46:43.313Z,61.85
2018-03-23T19:49:11.898Z,64.10
2018-03-23T19:51:40.615Z,63.43
2018-03-23T19:54:09.565Z,62.20
2018-03-23T19:56:38.296Z,62.72
2018-03-23T19:59:06.856Z,61.87
2018-03-23T20:01:35.291Z,62.76
2018-03-23T20:04:03.796Z,61.63
2018-03-23T20:06:32.304Z,63.16
2018-03-23T20:09:00.757Z,62.59
2018-03-23T20:11:29.280Z,61.81
2018-03-23T20:14:03.374Z,61.66
2018-03-23T20:16:31.849Z,59.66
2018-03-23T20:19:00.312Z,59.30
2018-03-23T20:21:28.956Z,61.29
2018-03-23T20:27:01.117Z,59.75
2018-03-23T20:29:29.656Z,59.96
2018-03-23T20:32:03.848Z,59.27
2018-03-23T20:34:32.311Z,59.80
2018-03-23T20:37:00.696Z,60.06
2018-03-23T20:39:29.079Z,60.07
2018-03-23T20:41:57.479Z,60.88
2018-03-23T20:44:25.877Z,61.01
2018-03-23T20:46:54.322Z,61.01
2018-03-23T20:49:22.713Z,60.92
2018-03-23T20:51:51.084Z,64.50
2018-03-23T20:54:19.461Z,61.29
2018-03-23T20:56:47.840Z,64.67
2018-03-23T20:59:16.285Z,65.53
2018-03-23T21:01:44.655Z,65.91
2018-03-23T21:04:13.044Z,63.46
2018-03-23T21:06:41.463Z,65.42
2018-03-23T21:09:09.856Z,65.11
2018-03-23T21:11:38.295Z,66.26
2018-03-23T21:14:06.681Z,65.92
2018-03-23T21:16:35.092Z,63.43
2018-03-23T21:19:03.482Z,62.94
2018-03-23T21:21:31.917Z,62.86
2018-03-23T21:24:00.378Z,63.02
2018-03-23T21:26:28.752Z,60.48
2018-03-23T21:28:57.151Z,63.98
2018-03-23T21:31:29.772Z,61.92
2018-03-23T21:33:58.151Z,65.02
2018-03-23T21:36:26.930Z,63.98
2018-03-23T21:38:55.316Z,62.08
2018-03-23T21:41:23.739Z,61.94
2018-03-23T21:43:52.184Z,63.11
2018-03-23T21:46:22.146Z,62.82
2018-03-23T21:48:50.656Z,64.79
2018-03-23T21:51:19.099Z,63.33
2018-03-23T21:53:52.709Z,60.63
2018-03-23T21:56:21.106Z,60.23
2018-03-23T21:58:49.612Z,59.68
2018-03-23T22:01:18.005Z,59.55
2018-03-23T22:03:46.437Z,62.18
2018-03-23T22:06:14.896Z,63.56
2018-03-23T22:08:43.828Z,60.74
2018-03-23T22:11:12.238Z,58.27
2018-03-23T22:13:41.535Z,58.74
2018-03-23T22:16:10.036Z,59.15
2018-03-23T22:18:38.468Z,56.15
2018-03-23T22:21:06.853Z,55.93
2018-03-23T22:23:35.232Z,56.06
2018-03-23T22:26:03.628Z,57.20
2018-03-23T22:28:32.101Z,55.87
2018-03-23T22:31:00.499Z,56.76
2018-03-23T22:33:28.895Z,56.02
2018-03-23T22:35:57.290Z,56.92
2018-03-23T22:38:26.666Z,56.52
2018-03-23T22:40:55.086Z,56.55
2018-03-23T22:43:23.485Z,57.43
2018-03-23T22:45:51.875Z,56.91
2018-03-23T22:48:20.292Z,58.71
2018-03-23T22:50:48.741Z,58.67
2018-03-23T22:53:17.132Z,59.32
2018-03-23T22:55:45.535Z,58.77
2018-03-23T22:58:13.926Z,57.60
2018-03-23T23:00:42.400Z,57.25
2018-03-23T23:03:10.836Z,57.11
2018-03-23T23:05:39.251Z,58.46
2018-03-23T23:08:07.718Z,59.02
2018-03-23T23:10:36.121Z,57.15
2018-03-23T23:13:04.503Z,57.06
2018-03-23T23:15:32.897Z,56.37
2018-03-23T23:18:01.279Z,57.00
2018-03-23T23:20:29.822Z,56.03
2018-03-23T23:22:58.198Z,56.92
2018-03-23T23:25:26.626Z,59.26
2018-03-23T23:27:55.021Z,60.09
2018-03-23T23:30:23.408Z,59.45
2018-03-23T23:32:51.836Z,58.96
2018-03-23T23:35:20.234Z,57.08
2018-03-23T23:37:48.650Z,56.73
2018-03-23T23:40:17.087Z,57.11
2018-03-23T23:42:45.472Z,56.33
2018-03-23T23:45:14.020Z,56.82
2018-03-23T23:47:42.410Z,56.75
2018-03-23T23:50:10.806Z,56.81
2018-03-23T23:52:39.205Z,56.11
2018-03-23T23:55:07.638Z,55.78
2018-03-23T23:57:36.096Z,55.62
